createdAt,value
2022-10-13T00:00:47.319Z,57.75
2022-10-13T00:03:14.371Z,58.14
2022-10-13T00:05:46.516Z,57.70
2022-10-13T00:08:15.422Z,57.56
2022-10-13T00:10:43.934Z,57.85
2022-10-13T00:13:11.562Z,58.09
2022-10-13T00:15:40.062Z,57.85
2022-10-13T00:18:06.786Z,57.82
2022-10-13T00:20:33.326Z,57.91
2022-10-13T00:22:59.692Z,57.50
2022-10-13T00:25:26.126Z,57.76
2022-10-13T00:27:52.492Z,57.94
2022-10-13T00:30:20.110Z,57.93
2022-10-13T00:32:46.745Z,57.98
2022-10-13T00:35:13.572Z,58.14
2022-10-13T00:37:39.904Z,57.96
2022-10-13T00:40:07.560Z,57.98
2022-10-13T00:42:34.008Z,57.48
2022-10-13T00:45:21.434Z,57.94
2022-10-13T00:47:51.855Z,58.13
2022-10-13T00:50:23.882Z,58.23
2022-10-13T00:52:56.092Z,57.91
2022-10-13T00:55:28.511Z,57.86
2022-10-13T00:57:56.018Z,58.09
2022-10-13T01:00:30.219Z,58.12
2022-10-13T01:02:57.282Z,57.97
2022-10-13T01:05:24.820Z,58.06
2022-10-13T01:07:56.686Z,58.32
2022-10-13T01:10:48.781Z,58.14
2022-10-13T01:13:30.735Z,58.47
2022-10-13T01:16:17.362Z,58.34
2022-10-13T01:19:07.827Z,58.11
2022-10-13T01:21:47.381Z,58.76
2022-10-13T01:24:41.660Z,58.80
2022-10-13T01:27:21.724Z,58.72
2022-10-13T01:30:03.440Z,58.36
2022-10-13T01:32:58.602Z,59.14
2022-10-13T01:35:39.202Z,58.93
2022-10-13T01:38:13.485Z,59.24
2022-10-13T01:40:47.932Z,59.33
2022-10-13T01:43:22.215Z,58.88
2022-10-13T01:46:02.375Z,59.31
2022-10-13T01:48:29.632Z,59.29
2022-10-13T01:50:59.006Z,59.45
2022-10-13T01:53:26.858Z,59.77
2022-10-13T01:55:57.066Z,59.81
2022-10-13T01:58:27.285Z,59.74
2022-10-13T02:01:31.313Z,59.79
2022-10-13T02:04:10.025Z,59.51
2022-10-13T02:06:45.431Z,59.79
2022-10-13T02:09:28.171Z,59.98
2022-10-13T02:12:02.279Z,60.34
2022-10-13T02:14:36.168Z,60.30
2022-10-13T02:17:04.930Z,60.38
2022-10-13T02:19:36.142Z,60.24
2022-10-13T02:22:04.049Z,59.98
2022-10-13T02:24:30.747Z,60.62
2022-10-13T02:26:57.586Z,60.49
2022-10-13T02:29:24.248Z,60.53
2022-10-13T02:31:50.753Z,60.96
2022-10-13T02:34:17.157Z,60.72
2022-10-13T02:36:46.299Z,60.63
2022-10-13T02:39:12.927Z,60.81
2022-10-13T02:41:39.544Z,60.89
2022-10-13T02:44:06.805Z,60.87
2022-10-13T02:46:34.284Z,60.59
2022-10-13T02:49:00.906Z,61.00
2022-10-13T02:51:28.448Z,60.20
2022-10-13T02:53:54.880Z,60.83
2022-10-13T02:56:21.213Z,61.24
2022-10-13T02:58:47.677Z,60.52
2022-10-13T03:01:15.342Z,60.88
2022-10-13T03:03:42.307Z,60.59
2022-10-13T03:06:08.796Z,60.63
2022-10-13T03:08:36.312Z,60.62
2022-10-13T03:11:03.397Z,60.65
2022-10-13T03:13:29.944Z,61.44
2022-10-13T03:16:03.382Z,60.87
2022-10-13T03:18:30.089Z,61.01
2022-10-13T03:21:01.806Z,60.81
2022-10-13T03:23:28.502Z,61.05
2022-10-13T03:25:55.395Z,60.85
2022-10-13T03:28:22.639Z,61.27
2022-10-13T03:30:50.883Z,61.85
2022-10-13T03:33:17.424Z,61.78
2022-10-13T03:35:44.156Z,61.65
2022-10-13T03:38:11.145Z,62.03
2022-10-13T03:40:38.581Z,62.26
2022-10-13T03:43:05.000Z,62.12
2022-10-13T03:45:31.554Z,62.35
2022-10-13T03:47:58.469Z,62.26
2022-10-13T03:50:26.129Z,62.77
2022-10-13T03:52:54.188Z,61.85
2022-10-13T03:55:20.752Z,62.81
2022-10-13T03:57:47.124Z,62.36
2022-10-13T04:00:14.300Z,62.31
2022-10-13T04:02:41.791Z,62.51
2022-10-13T04:05:08.556Z,62.34
2022-10-13T04:07:34.993Z,62.39
2022-10-13T04:10:10.284Z,62.84
2022-10-13T04:12:38.373Z,62.72
2022-10-13T04:15:05.144Z,62.96
2022-10-13T04:17:31.478Z,62.79
2022-10-13T04:19:57.890Z,62.92
2022-10-13T04:22:24.212Z,62.36
2022-10-13T04:24:50.615Z,62.55
2022-10-13T04:27:19.029Z,62.39
2022-10-13T04:29:45.468Z,62.58
2022-10-13T04:32:11.904Z,62.93
2022-10-13T04:34:38.442Z,62.59
2022-10-13T04:37:04.775Z,62.45
2022-10-13T04:39:31.252Z,62.71
2022-10-13T04:41:57.672Z,61.89
2022-10-13T04:44:23.989Z,62.47
2022-10-13T04:46:50.352Z,62.88
2022-10-13T04:49:17.133Z,63.13
2022-10-13T04:51:43.563Z,63.13
2022-10-13T04:54:10.409Z,62.94
2022-10-13T04:56:36.809Z,62.88
2022-10-13T04:59:05.676Z,63.49
2022-10-13T05:01:33.003Z,63.40
2022-10-13T05:04:01.814Z,62.97
2022-10-13T05:06:48.593Z,63.33
2022-10-13T05:09:23.505Z,63.05
2022-10-13T05:11:49.855Z,63.60
2022-10-13T05:14:16.248Z,63.41
2022-10-13T05:16:42.680Z,63.37
2022-10-13T05:19:09.030Z,63.57
2022-10-13T05:21:35.482Z,64.23
2022-10-13T05:24:02.651Z,63.93
2022-10-13T05:26:31.897Z,63.82
2022-10-13T05:28:59.717Z,63.91
2022-10-13T05:31:30.859Z,63.78
2022-10-13T05:33:59.844Z,63.57
2022-10-13T05:36:32.334Z,64.03
2022-10-13T05:39:01.382Z,63.60
2022-10-13T05:41:28.977Z,63.97
2022-10-13T05:44:04.607Z,63.60
2022-10-13T05:46:31.214Z,63.74
2022-10-13T05:48:57.558Z,63.90
2022-10-13T05:51:30.024Z,64.21
2022-10-13T05:54:25.532Z,63.87
2022-10-13T05:56:57.271Z,63.96
2022-10-13T05:59:29.844Z,64.29
2022-10-13T06:01:56.433Z,64.62
2022-10-13T06:04:37.440Z,64.56
2022-10-13T06:07:04.091Z,64.24
2022-10-13T06:09:37.867Z,64.42
2022-10-13T06:12:05.471Z,64.20
2022-10-13T06:14:31.945Z,64.75
2022-10-13T06:16:58.337Z,64.68
2022-10-13T06:19:24.847Z,64.78
2022-10-13T06:21:51.353Z,64.60
2022-10-13T06:24:17.860Z,64.51
2022-10-13T06:26:44.412Z,64.70
2022-10-13T06:29:10.847Z,64.90
2022-10-13T06:31:37.656Z,65.10
2022-10-13T06:34:04.114Z,64.84
2022-10-13T06:36:31.428Z,64.75
2022-10-13T06:38:57.847Z,65.66
2022-10-13T06:41:24.284Z,65.03
2022-10-13T06:43:50.800Z,65.99
2022-10-13T06:46:17.350Z,66.24
2022-10-13T06:48:43.820Z,66.30
2022-10-13T06:51:12.204Z,66.83
2022-10-13T06:53:38.658Z,66.63
2022-10-13T06:56:06.805Z,66.73
2022-10-13T06:58:35.165Z,67.50
2022-10-13T07:01:01.732Z,67.84
2022-10-13T07:03:28.307Z,67.24
2022-10-13T07:05:54.883Z,67.38
2022-10-13T07:08:21.343Z,66.79
2022-10-13T07:10:48.717Z,66.33
2022-10-13T07:13:15.263Z,65.87
2022-10-13T07:15:41.636Z,66.17
2022-10-13T07:18:08.619Z,66.33
2022-10-13T07:20:35.709Z,65.86
2022-10-13T07:23:02.475Z,65.17
2022-10-13T07:25:28.930Z,65.42
2022-10-13T07:27:55.492Z,65.85
2022-10-13T07:30:22.223Z,65.62
2022-10-13T07:32:48.796Z,65.62
2022-10-13T07:35:15.493Z,66.10
2022-10-13T07:37:42.053Z,66.07
2022-10-13T07:40:09.053Z,66.17
2022-10-13T07:42:35.886Z,65.94
2022-10-13T07:45:02.569Z,65.81
2022-10-13T07:47:29.507Z,64.99
2022-10-13T07:49:55.928Z,65.26
2022-10-13T07:52:23.144Z,65.65
2022-10-13T07:54:50.735Z,65.17
2022-10-13T07:57:17.667Z,65.49
2022-10-13T07:59:44.429Z,65.53
2022-10-13T08:02:12.950Z,64.98
2022-10-13T08:04:39.356Z,65.68
2022-10-13T08:07:06.566Z,66.19
2022-10-13T08:09:33.870Z,66.33
2022-10-13T08:12:01.822Z,66.46
2022-10-13T08:14:29.665Z,66.37
2022-10-13T08:16:57.163Z,66.09
2022-10-13T08:19:26.208Z,66.57
2022-10-13T08:21:58.088Z,66.46
2022-10-13T08:24:26.201Z,66.61
2022-10-13T08:26:52.702Z,66.30
2022-10-13T08:29:23.894Z,66.64
2022-10-13T08:31:53.082Z,67.20
2022-10-13T08:34:20.540Z,67.50
2022-10-13T08:36:47.301Z,67.32
2022-10-13T08:39:14.189Z,67.12
2022-10-13T08:41:45.560Z,67.17
2022-10-13T08:45:06.320Z,66.90
2022-10-13T08:47:38.262Z,66.90
2022-10-13T08:50:21.407Z,66.92
2022-10-13T08:52:58.286Z,66.91
2022-10-13T08:55:35.112Z,67.16
2022-10-13T08:58:06.293Z,67.29
2022-10-13T09:00:32.667Z,67.09
2022-10-13T09:03:19.476Z,67.17
2022-10-13T09:06:13.115Z,67.80
2022-10-13T09:08:44.009Z,68.21
2022-10-13T09:11:12.454Z,68.13
2022-10-13T09:13:38.841Z,67.94
2022-10-13T09:16:05.631Z,67.13
2022-10-13T09:18:33.545Z,67.80
2022-10-13T09:21:15.499Z,67.86
2022-10-13T09:23:42.174Z,68.12
2022-10-13T09:26:16.256Z,68.24
2022-10-13T09:28:43.092Z,67.06
2022-10-13T09:31:16.954Z,66.70
2022-10-13T09:33:44.561Z,66.76
2022-10-13T09:36:13.686Z,66.82
2022-10-13T09:38:42.946Z,66.53
2022-10-13T09:41:09.248Z,66.42
2022-10-13T09:43:45.561Z,65.87
2022-10-13T09:46:26.669Z,66.12
2022-10-13T09:49:03.515Z,66.53
2022-10-13T09:51:32.537Z,65.31
2022-10-13T09:54:02.212Z,63.98
2022-10-13T09:56:38.235Z,63.12
2022-10-13T09:59:31.102Z,61.53
2022-10-13T10:02:00.052Z,60.24
2022-10-13T10:04:38.320Z,60.15
2022-10-13T10:07:20.820Z,60.73
2022-10-13T10:09:57.455Z,60.49
2022-10-13T10:12:28.663Z,60.73
2022-10-13T10:14:55.481Z,60.62
2022-10-13T10:17:55.654Z,61.55
2022-10-13T10:20:33.796Z,62.07
2022-10-13T10:23:11.128Z,62.38
2022-10-13T10:26:01.269Z,62.75
2022-10-13T10:28:33.796Z,63.12
2022-10-13T10:31:31.248Z,63.62
2022-10-13T10:34:15.394Z,64.08
2022-10-13T10:36:53.212Z,64.22
2022-10-13T10:39:27.869Z,64.28
2022-10-13T10:42:05.374Z,63.68
2022-10-13T10:44:41.069Z,63.98
2022-10-13T10:47:26.023Z,63.79
2022-10-13T10:50:05.793Z,64.03
2022-10-13T10:53:06.628Z,63.76
2022-10-13T10:55:48.587Z,63.80
2022-10-13T10:58:18.130Z,64.06
2022-10-13T11:01:14.433Z,63.88
2022-10-13T11:03:57.891Z,64.41
2022-10-13T11:06:34.051Z,62.95
2022-10-13T11:09:00.984Z,61.28
2022-10-13T11:11:33.372Z,60.81
2022-10-13T11:14:06.582Z,59.57
2022-10-13T11:16:41.072Z,59.26
2022-10-13T11:19:34.286Z,59.13
2022-10-13T11:22:00.671Z,55.32
2022-10-13T11:24:39.338Z,52.07
2022-10-13T11:27:08.963Z,48.62
2022-10-13T11:29:44.373Z,47.10
2022-10-13T11:32:26.157Z,44.79
2022-10-13T11:35:00.513Z,44.42
2022-10-13T11:37:55.839Z,45.48
2022-10-13T11:40:56.457Z,47.02
2022-10-13T11:43:44.706Z,44.12
2022-10-13T11:46:22.761Z,42.37
2022-10-13T11:49:40.898Z,39.72
2022-10-13T11:52:22.800Z,37.81
2022-10-13T11:55:12.681Z,34.43
2022-10-13T11:57:41.372Z,33.98
2022-10-13T12:00:18.907Z,32.35
2022-10-13T12:02:51.345Z,30.42
2022-10-13T12:05:24.436Z,31.78
2022-10-13T12:07:53.274Z,34.76
2022-10-13T12:10:26.991Z,37.42
2022-10-13T12:12:53.456Z,41.01
2022-10-13T12:15:43.169Z,43.49
2022-10-13T12:18:28.232Z,44.81
2022-10-13T12:20:56.641Z,43.94
2022-10-13T12:23:23.346Z,44.48
2022-10-13T12:25:57.151Z,46.38
2022-10-13T12:28:25.758Z,47.76
2022-10-13T12:30:58.795Z,51.47
2022-10-13T12:33:35.414Z,50.44
2022-10-13T12:36:18.826Z,48.73
2022-10-13T12:38:54.080Z,49.08
2022-10-13T12:41:33.241Z,49.44
2022-10-13T12:44:02.537Z,51.36
2022-10-13T12:46:43.605Z,52.24
2022-10-13T12:49:14.834Z,53.63
2022-10-13T12:51:43.232Z,55.45
2022-10-13T12:54:20.828Z,55.79
2022-10-13T12:56:48.213Z,56.96
2022-10-13T12:59:18.084Z,56.88
2022-10-13T13:01:54.618Z,56.79
2022-10-13T13:04:21.096Z,56.54
2022-10-13T13:06:56.441Z,57.05
2022-10-13T13:09:38.716Z,57.53
2022-10-13T13:12:08.171Z,58.31
2022-10-13T13:14:42.157Z,58.96
2022-10-13T13:17:12.935Z,59.73
2022-10-13T13:19:41.772Z,59.43
2022-10-13T13:22:10.196Z,60.44
2022-10-13T13:24:40.214Z,60.42
2022-10-13T13:27:18.502Z,60.50
2022-10-13T13:29:45.593Z,60.23
2022-10-13T13:32:14.064Z,60.37
2022-10-13T13:34:40.578Z,60.50
2022-10-13T13:37:14.022Z,60.96
2022-10-13T13:39:40.863Z,60.84
2022-10-13T13:42:13.513Z,61.19
2022-10-13T13:44:39.974Z,61.42
2022-10-13T13:47:15.600Z,61.73
2022-10-13T13:49:46.017Z,61.69
2022-10-13T13:52:12.454Z,62.23
2022-10-13T13:54:38.854Z,62.12
2022-10-13T13:57:05.394Z,62.04
2022-10-13T13:59:31.928Z,62.00
2022-10-13T14:01:58.693Z,61.97
2022-10-13T14:04:26.039Z,61.97
2022-10-13T14:06:52.911Z,62.10
2022-10-13T14:09:19.404Z,62.26
2022-10-13T14:11:45.839Z,62.37
2022-10-13T14:14:12.277Z,62.43
2022-10-13T14:16:38.720Z,61.95
2022-10-13T14:19:05.517Z,61.93
2022-10-13T14:21:32.031Z,62.04
2022-10-13T14:23:59.470Z,61.85
2022-10-13T14:26:26.164Z,62.39
2022-10-13T14:28:52.721Z,62.27
2022-10-13T14:31:19.151Z,62.26
2022-10-13T14:33:48.746Z,62.23
2022-10-13T14:36:18.488Z,62.36
2022-10-13T14:38:44.898Z,62.48
2022-10-13T14:41:11.674Z,62.00
2022-10-13T14:43:38.283Z,61.86
2022-10-13T14:46:06.530Z,62.11
2022-10-13T14:48:34.424Z,62.10
2022-10-13T14:51:09.228Z,62.33
2022-10-13T14:53:37.894Z,62.05
2022-10-13T14:56:19.324Z,62.10
2022-10-13T14:58:50.768Z,62.45
2022-10-13T15:01:18.015Z,62.57
2022-10-13T15:03:44.875Z,62.61
2022-10-13T15:06:16.413Z,63.03
2022-10-13T15:08:43.894Z,62.46
2022-10-13T15:11:11.492Z,62.43
2022-10-13T15:13:38.624Z,62.85
2022-10-13T15:16:06.189Z,62.26
2022-10-13T15:18:35.965Z,62.79
2022-10-13T15:21:02.814Z,62.94
2022-10-13T15:23:29.344Z,62.98
2022-10-13T15:26:00.987Z,63.25
2022-10-13T15:28:36.463Z,63.31
2022-10-13T15:31:02.958Z,63.57
2022-10-13T15:33:29.655Z,63.73
2022-10-13T15:35:56.345Z,64.17
2022-10-13T15:38:23.475Z,64.16
2022-10-13T15:40:50.057Z,64.58
2022-10-13T15:43:17.308Z,65.74
2022-10-13T15:45:53.380Z,66.99
2022-10-13T15:48:19.815Z,66.90
2022-10-13T15:50:46.232Z,67.45
2022-10-13T15:53:13.360Z,67.87
2022-10-13T15:55:40.469Z,67.80
2022-10-13T15:58:11.358Z,67.63
2022-10-13T16:00:41.137Z,67.59
2022-10-13T16:03:12.216Z,67.67
2022-10-13T16:05:40.596Z,68.54
2022-10-13T16:08:06.961Z,68.20
2022-10-13T16:10:33.376Z,68.61
2022-10-13T16:13:00.265Z,68.46
2022-10-13T16:15:27.286Z,68.17
2022-10-13T16:17:53.790Z,68.06
2022-10-13T16:20:21.389Z,68.30
2022-10-13T16:22:47.959Z,68.11
2022-10-13T16:25:14.372Z,68.35
2022-10-13T16:27:44.220Z,67.93
2022-10-13T16:30:11.817Z,67.57
2022-10-13T16:32:39.528Z,67.63
2022-10-13T16:35:07.075Z,67.33
2022-10-13T16:37:33.574Z,67.41
2022-10-13T16:39:59.936Z,67.09
2022-10-13T16:42:26.559Z,67.55
2022-10-13T16:44:53.099Z,67.57
2022-10-13T16:47:19.927Z,67.58
2022-10-13T16:49:46.990Z,67.63
2022-10-13T16:52:14.730Z,67.41
2022-10-13T16:54:43.570Z,67.45
2022-10-13T16:57:09.956Z,67.64
2022-10-13T16:59:36.649Z,67.43
2022-10-13T17:02:03.092Z,67.14
2022-10-13T17:04:30.864Z,67.65
2022-10-13T17:06:57.336Z,67.84
2022-10-13T17:09:23.688Z,68.27
2022-10-13T17:11:50.070Z,68.35
2022-10-13T17:14:16.414Z,68.51
2022-10-13T17:16:44.074Z,68.36
2022-10-13T17:19:10.533Z,68.93
2022-10-13T17:21:37.159Z,68.98
2022-10-13T17:24:05.635Z,68.21
2022-10-13T17:26:32.819Z,68.10
2022-10-13T17:28:59.307Z,68.47
2022-10-13T17:31:25.802Z,69.18
2022-10-13T17:33:53.063Z,69.75
2022-10-13T17:36:28.154Z,70.47
2022-10-13T17:38:56.205Z,70.60
2022-10-13T17:41:24.302Z,71.37
2022-10-13T17:43:51.614Z,71.36
2022-10-13T17:46:41.865Z,71.74
2022-10-13T17:49:11.143Z,71.82
2022-10-13T17:51:38.155Z,72.24
2022-10-13T17:54:06.837Z,72.35
2022-10-13T17:56:35.684Z,72.91
2022-10-13T17:59:02.464Z,73.33
2022-10-13T18:01:31.771Z,73.12
2022-10-13T18:04:08.297Z,73.69
2022-10-13T18:06:39.747Z,73.90
2022-10-13T18:09:09.177Z,74.49
2022-10-13T18:11:36.204Z,74.01
2022-10-13T18:14:04.311Z,75.05
2022-10-13T18:16:35.127Z,76.54
2022-10-13T18:19:04.097Z,77.85
2022-10-13T18:21:31.223Z,78.35
2022-10-13T18:24:02.903Z,78.39
2022-10-13T18:26:32.064Z,78.40
2022-10-13T18:28:58.709Z,78.11
2022-10-13T18:31:30.501Z,78.89
2022-10-13T18:34:03.895Z,78.43
2022-10-13T18:36:33.048Z,78.53
2022-10-13T18:39:11.044Z,78.56
2022-10-13T18:41:39.607Z,78.23
2022-10-13T18:44:07.114Z,78.32
2022-10-13T18:46:34.578Z,79.29
2022-10-13T18:49:01.207Z,79.08
2022-10-13T18:51:33.385Z,79.17
2022-10-13T18:54:02.398Z,79.15
2022-10-13T18:56:30.465Z,78.94
2022-10-13T18:58:59.841Z,78.79
2022-10-13T19:01:28.761Z,79.15
2022-10-13T19:03:55.856Z,78.84
2022-10-13T19:06:26.603Z,79.18
2022-10-13T19:09:02.068Z,78.95
2022-10-13T19:11:29.507Z,79.18
2022-10-13T19:13:57.053Z,79.20
2022-10-13T19:16:25.186Z,79.53
2022-10-13T19:18:52.324Z,78.97
2022-10-13T19:21:20.150Z,79.04
2022-10-13T19:23:47.154Z,79.12
2022-10-13T19:26:25.135Z,79.59
2022-10-13T19:29:01.591Z,79.39
2022-10-13T19:31:30.142Z,79.44
2022-10-13T19:33:59.320Z,79.67
2022-10-13T19:36:32.968Z,79.40
2022-10-13T19:39:05.015Z,79.26
2022-10-13T19:41:32.208Z,79.28
2022-10-13T19:43:59.502Z,79.52
2022-10-13T19:46:35.864Z,79.40
2022-10-13T19:49:03.545Z,79.96
2022-10-13T19:51:29.966Z,80.00
2022-10-13T19:53:56.488Z,79.90
2022-10-13T19:56:31.502Z,80.10
2022-10-13T19:58:58.695Z,80.24
2022-10-13T20:01:25.144Z,80.28
2022-10-13T20:03:51.580Z,80.53
2022-10-13T20:06:19.294Z,80.72
2022-10-13T20:08:46.186Z,81.57
2022-10-13T20:11:20.699Z,82.50
2022-10-13T20:13:49.669Z,82.84
2022-10-13T20:16:18.610Z,83.24
2022-10-13T20:18:45.352Z,83.57
2022-10-13T20:21:12.852Z,83.73
2022-10-13T20:23:40.829Z,83.85
2022-10-13T20:26:09.589Z,83.92
2022-10-13T20:28:42.733Z,83.54
2022-10-13T20:31:12.791Z,84.30
2022-10-13T20:33:39.787Z,84.16
2022-10-13T20:36:09.157Z,83.94
2022-10-13T20:38:35.994Z,83.32
2022-10-13T20:41:28.316Z,83.66
2022-10-13T20:43:57.069Z,83.59
2022-10-13T20:46:23.980Z,83.27
2022-10-13T20:49:09.906Z,83.77
2022-10-13T20:51:37.458Z,83.15
2022-10-13T20:54:04.078Z,83.53
2022-10-13T20:56:30.600Z,83.59
2022-10-13T20:59:02.188Z,83.97
2022-10-13T21:01:28.688Z,83.37
2022-10-13T21:03:55.640Z,83.70
2022-10-13T21:06:27.356Z,83.42
2022-10-13T21:09:00.053Z,83.17
2022-10-13T21:11:26.923Z,82.94
2022-10-13T21:13:53.553Z,82.04
2022-10-13T21:16:28.901Z,81.68
2022-10-13T21:18:57.204Z,82.09
2022-10-13T21:21:28.637Z,82.38
2022-10-13T21:23:57.580Z,82.52
2022-10-13T21:26:26.138Z,82.40
2022-10-13T21:28:53.041Z,81.96
2022-10-13T21:31:22.170Z,81.99
2022-10-13T21:33:49.627Z,82.04
2022-10-13T21:36:19.431Z,81.80
2022-10-13T21:38:47.078Z,82.20
2022-10-13T21:41:14.900Z,81.71
2022-10-13T21:43:42.412Z,81.67
2022-10-13T21:46:16.834Z,81.96
2022-10-13T21:48:44.392Z,82.04
2022-10-13T21:51:22.407Z,83.00
2022-10-13T21:53:51.176Z,82.33
2022-10-13T21:56:18.541Z,82.48
2022-10-13T21:58:45.656Z,82.45
2022-10-13T22:01:12.204Z,82.61
2022-10-13T22:03:39.249Z,81.78
2022-10-13T22:06:08.152Z,82.06
2022-10-13T22:08:42.582Z,82.51
2022-10-13T22:11:14.370Z,81.71
2022-10-13T22:13:40.876Z,81.99
2022-10-13T22:16:11.495Z,82.61
2022-10-13T22:18:40.943Z,82.45
2022-10-13T22:21:11.029Z,81.22
2022-10-13T22:23:37.479Z,80.89
2022-10-13T22:26:04.086Z,80.88
2022-10-13T22:28:36.076Z,80.59
2022-10-13T22:31:09.368Z,80.25
2022-10-13T22:33:37.200Z,80.60
2022-10-13T22:36:11.762Z,81.60
2022-10-13T22:38:38.290Z,81.34
2022-10-13T22:41:07.752Z,81.00
2022-10-13T22:43:34.864Z,80.98
2022-10-13T22:46:14.363Z,80.37
2022-10-13T22:48:41.786Z,80.05
2022-10-13T22:51:13.281Z,80.08
2022-10-13T22:53:39.839Z,80.28
2022-10-13T22:56:14.163Z,80.81
2022-10-13T22:58:40.752Z,80.73
2022-10-13T23:01:09.562Z,81.13
2022-10-13T23:03:37.114Z,80.89
2022-10-13T23:06:04.384Z,81.35
2022-10-13T23:08:30.958Z,80.93
2022-10-13T23:10:57.865Z,80.37
2022-10-13T23:13:24.739Z,80.15
2022-10-13T23:15:52.396Z,79.72
2022-10-13T23:18:18.921Z,80.22
2022-10-13T23:20:45.267Z,80.75
2022-10-13T23:23:13.864Z,80.16
2022-10-13T23:25:40.241Z,80.67
2022-10-13T23:28:06.608Z,80.22
2022-10-13T23:30:32.964Z,80.87
2022-10-13T23:32:59.296Z,80.49
2022-10-13T23:35:25.804Z,81.18
2022-10-13T23:37:52.856Z,81.18
2022-10-13T23:40:19.919Z,81.51
2022-10-13T23:42:46.436Z,81.30
2022-10-13T23:45:12.869Z,81.02
2022-10-13T23:47:40.236Z,80.61
2022-10-13T23:50:06.807Z,80.16
2022-10-13T23:52:34.024Z,80.01
2022-10-13T23:55:00.415Z,80.62
2022-10-13T23:57:29.689Z,80.57
2022-10-13T23:59:56.094Z,80.05
